Maybole, United Kingdom
Current Conditions -  °F | °C
As of 12:50 AM on Tuesday 21 Oct 2014 (Local Time) from EGPK Reporting Station
Moderate Rain Moderate Rain  
Wind Chill: 54°   Ceiling: 1100
Heat Index: 54°   Visibility: 5mi
Dew Point: 52°   Wind: 20mph
Humidity: 94%   Direction: 170°S
Pressure: 29.29"   Gusts: NA
Location:  55.36°N, 4.68°W
Report Text: EGPK 202350Z 17017KT 8000 RA SCT004 BKN011 12/11 Q0992
Loading
Personal Weather Stations






























Interactive Weather Map
Tropical Storm Tracking
New forecast layout! Learn more

10-Day Weather Forecast

Advertisements
Track Severe Weather on mobile